createdAt,value
2022-08-22T00:00:30.950Z,2.60
2022-08-22T00:02:53.826Z,2.97
2022-08-22T00:02:55.438Z,3.00
2022-08-22T00:02:55.670Z,2.83
2022-08-22T00:03:01.687Z,5.40
2022-08-22T00:03:02.026Z,3.17
2022-08-22T00:03:27.131Z,2.70
2022-08-22T00:06:16.429Z,2.90
2022-08-22T00:09:02.775Z,2.73
2022-08-22T00:11:47.582Z,3.00
2022-08-22T00:14:33.661Z,2.83
2022-08-22T00:17:14.514Z,2.70
2022-08-22T00:19:55.512Z,2.80
2022-08-22T00:22:44.814Z,2.93
2022-08-22T00:25:45.557Z,2.40
2022-08-22T00:28:21.421Z,3.03
2022-08-22T00:30:58.892Z,2.80
2022-08-22T00:33:46.422Z,3.00
2022-08-22T00:36:26.361Z,2.90
2022-08-22T00:39:08.850Z,2.57
2022-08-22T00:42:30.307Z,2.73
2022-08-22T00:45:59.868Z,2.80
2022-08-22T00:49:15.515Z,2.80
2022-08-22T00:52:23.027Z,2.90
2022-08-22T00:55:21.793Z,2.77
2022-08-22T00:58:15.290Z,2.73
2022-08-22T01:00:53.074Z,2.67
2022-08-22T01:04:03.283Z,2.50
2022-08-22T01:06:53.828Z,2.77
2022-08-22T01:09:48.214Z,2.70
2022-08-22T01:12:47.176Z,2.90
2022-08-22T01:15:25.234Z,2.80
2022-08-22T01:18:40.859Z,2.77
2022-08-22T01:22:01.217Z,3.07
2022-08-22T01:25:26.063Z,2.90
2022-08-22T01:28:44.073Z,2.70
2022-08-22T01:32:14.943Z,2.83
2022-08-22T01:35:30.419Z,3.17
2022-08-22T01:38:49.186Z,2.70
2022-08-22T01:42:04.218Z,2.67
2022-08-22T01:45:13.122Z,2.63
2022-08-22T01:47:54.255Z,3.03
2022-08-22T01:50:32.647Z,2.60
2022-08-22T01:53:09.192Z,2.90
2022-08-22T01:55:58.212Z,2.70
2022-08-22T01:58:33.335Z,2.90
2022-08-22T02:01:24.560Z,2.80
2022-08-22T02:04:04.932Z,2.63
2022-08-22T02:06:46.960Z,3.20
2022-08-22T02:09:37.437Z,2.47
2022-08-22T02:12:28.278Z,2.90
2022-08-22T02:15:16.853Z,2.97
2022-08-22T02:18:16.882Z,2.90
2022-08-22T02:21:17.767Z,2.90
2022-08-22T02:23:56.996Z,2.80
2022-08-22T02:26:40.401Z,3.00
2022-08-22T02:29:17.102Z,2.87
2022-08-22T02:31:55.405Z,2.87
2022-08-22T02:34:40.037Z,2.90
2022-08-22T02:37:17.555Z,2.90
2022-08-22T02:39:55.118Z,3.10
2022-08-22T02:42:35.025Z,2.77
2022-08-22T02:45:20.125Z,2.70
2022-08-22T02:48:05.582Z,2.90
2022-08-22T02:50:47.882Z,3.00
2022-08-22T02:53:23.217Z,3.07
2022-08-22T02:56:02.202Z,3.00
2022-08-22T02:58:45.895Z,3.10
2022-08-22T03:01:40.792Z,2.77
2022-08-22T03:04:47.669Z,2.97
2022-08-22T03:07:37.727Z,2.73
2022-08-22T03:10:22.027Z,3.30
2022-08-22T03:13:08.009Z,2.83
2022-08-22T03:15:55.185Z,3.17
2022-08-22T03:18:35.275Z,3.10
2022-08-22T03:21:19.764Z,3.20
2022-08-22T03:23:57.502Z,3.20
2022-08-22T03:26:36.463Z,3.00
2022-08-22T03:29:14.074Z,3.50
2022-08-22T03:32:09.833Z,4.07
2022-08-22T03:34:40.317Z,3.03
2022-08-22T03:37:22.132Z,3.33
2022-08-22T03:40:03.862Z,3.00
2022-08-22T03:42:59.832Z,3.17
2022-08-22T03:46:13.854Z,3.03
2022-08-22T03:49:35.873Z,2.80
2022-08-22T03:52:32.480Z,3.40
2022-08-22T03:55:26.672Z,3.30
2022-08-22T03:58:40.779Z,3.00
2022-08-22T04:02:03.152Z,3.03
2022-08-22T04:05:43.797Z,2.87
2022-08-22T04:08:50.972Z,3.33
2022-08-22T04:12:07.009Z,3.10
2022-08-22T04:15:26.070Z,3.27
2022-08-22T04:18:25.856Z,3.40
2022-08-22T04:21:59.919Z,3.07
2022-08-22T04:25:04.628Z,3.00
2022-08-22T04:27:46.757Z,3.17
2022-08-22T04:30:30.224Z,3.17
2022-08-22T04:33:10.110Z,3.30
2022-08-22T04:35:47.530Z,2.90
2022-08-22T04:38:30.709Z,3.20
2022-08-22T04:41:10.579Z,3.13
2022-08-22T04:43:49.767Z,3.10
2022-08-22T04:46:36.942Z,3.37
2022-08-22T04:49:16.216Z,3.50
2022-08-22T04:51:55.184Z,3.10
2022-08-22T04:54:45.089Z,3.10
2022-08-22T04:57:29.258Z,3.37
2022-08-22T05:00:03.316Z,3.17
2022-08-22T05:02:32.135Z,3.13
2022-08-22T05:05:13.533Z,3.30
2022-08-22T05:07:53.830Z,3.50
2022-08-22T05:10:27.837Z,3.30
2022-08-22T05:13:04.045Z,3.10
2022-08-22T05:15:37.957Z,3.23
2022-08-22T05:18:14.005Z,3.50
2022-08-22T05:20:50.920Z,3.90
2022-08-22T05:23:28.552Z,3.43
2022-08-22T05:26:03.826Z,3.43
2022-08-22T05:28:39.785Z,3.50
2022-08-22T05:31:14.862Z,3.50
2022-08-22T05:33:49.854Z,3.40
2022-08-22T05:36:25.668Z,3.20
2022-08-22T05:39:00.485Z,3.30
2022-08-22T05:41:35.670Z,3.20
2022-08-22T05:44:06.003Z,3.20
2022-08-22T05:46:44.721Z,3.20
2022-08-22T05:49:22.043Z,3.50
2022-08-22T05:52:08.909Z,3.40
2022-08-22T05:54:52.706Z,3.73
2022-08-22T05:57:31.598Z,3.80
2022-08-22T06:00:07.754Z,3.70
2022-08-22T06:03:00.599Z,3.83
2022-08-22T06:05:38.979Z,3.53
2022-08-22T06:08:18.749Z,3.50
2022-08-22T06:10:53.805Z,3.10
2022-08-22T06:13:32.326Z,3.53
2022-08-22T06:16:16.969Z,3.00
2022-08-22T06:18:47.269Z,3.60
2022-08-22T06:21:30.591Z,3.60
2022-08-22T06:24:09.777Z,3.60
2022-08-22T06:26:48.217Z,3.30
2022-08-22T06:29:29.711Z,3.23
2022-08-22T06:32:03.274Z,3.57
2022-08-22T06:34:38.916Z,3.43
2022-08-22T06:37:17.265Z,3.40
2022-08-22T06:39:54.714Z,3.70
2022-08-22T06:42:30.261Z,3.70
2022-08-22T06:45:07.609Z,3.40
2022-08-22T06:47:43.646Z,3.73
2022-08-22T06:50:26.511Z,3.53
2022-08-22T06:53:03.766Z,3.67
2022-08-22T06:55:37.114Z,3.67
2022-08-22T06:58:15.508Z,3.57
2022-08-22T07:01:05.166Z,3.83
2022-08-22T07:03:41.463Z,3.43
2022-08-22T07:06:17.163Z,3.57
2022-08-22T07:08:47.565Z,4.00
2022-08-22T07:11:24.662Z,3.37
2022-08-22T07:14:01.922Z,3.80
2022-08-22T07:16:35.405Z,3.80
2022-08-22T07:22:17.835Z,4.00
2022-08-22T07:24:54.444Z,4.30
2022-08-22T07:27:48.821Z,4.17
2022-08-22T07:30:27.422Z,4.23
2022-08-22T07:33:26.726Z,4.20
2022-08-22T07:36:00.281Z,4.10
2022-08-22T07:38:43.094Z,3.80
2022-08-22T07:41:20.118Z,3.60
2022-08-22T07:43:54.645Z,4.03
2022-08-22T07:46:33.113Z,4.10
2022-08-22T07:49:15.392Z,3.90
2022-08-22T07:51:49.765Z,3.90
2022-08-22T07:54:26.527Z,3.67
2022-08-22T07:57:02.676Z,3.97
2022-08-22T07:59:38.569Z,5.40
2022-08-22T08:02:13.554Z,5.80
2022-08-22T08:04:43.788Z,5.30
2022-08-22T08:07:17.970Z,5.40
2022-08-22T08:09:54.786Z,6.23
2022-08-22T08:12:43.291Z,6.27
2022-08-22T08:15:26.055Z,5.47
2022-08-22T08:18:02.002Z,5.50
2022-08-22T08:20:33.906Z,5.63
2022-08-22T08:23:05.255Z,4.80
2022-08-22T08:25:53.475Z,5.07
2022-08-22T08:28:34.747Z,4.73
2022-08-22T08:31:15.367Z,5.27
2022-08-22T08:33:50.016Z,5.63
2022-08-22T08:36:38.834Z,5.30
2022-08-22T08:39:21.023Z,4.90
2022-08-22T08:43:15.131Z,4.60
2022-08-22T08:46:26.259Z,3.80
2022-08-22T08:49:24.129Z,3.80
2022-08-22T08:52:29.304Z,4.43
2022-08-22T08:55:22.459Z,3.30
2022-08-22T08:58:43.392Z,2.97
2022-08-22T09:01:40.049Z,2.47
2022-08-22T09:04:56.862Z,2.60
2022-08-22T09:08:02.174Z,2.37
2022-08-22T09:11:02.949Z,2.30
2022-08-22T09:14:00.507Z,2.53
2022-08-22T09:17:10.179Z,2.65
2022-08-22T09:20:21.470Z,2.33
2022-08-22T09:23:54.067Z,2.75
2022-08-22T09:26:32.234Z,2.30
2022-08-22T09:29:29.034Z,2.38
2022-08-22T09:32:13.543Z,2.58
2022-08-22T09:35:12.526Z,2.90
2022-08-22T09:38:00.637Z,2.83
2022-08-22T09:40:37.619Z,2.85
2022-08-22T09:43:11.898Z,2.67
2022-08-22T09:46:03.869Z,3.00
2022-08-22T09:48:46.386Z,2.97
2022-08-22T09:51:33.357Z,2.80
2022-08-22T09:54:31.081Z,2.78
2022-08-22T09:57:30.838Z,2.53
2022-08-22T10:00:26.338Z,2.70
2022-08-22T10:03:13.741Z,2.38
2022-08-22T10:05:53.595Z,2.20
2022-08-22T10:08:47.297Z,2.85
2022-08-22T10:11:29.278Z,2.50
2022-08-22T10:14:08.102Z,2.60
2022-08-22T10:17:01.889Z,2.63
2022-08-22T10:19:40.927Z,2.63
2022-08-22T10:22:44.452Z,2.60
2022-08-22T10:25:35.822Z,2.63
2022-08-22T10:28:33.444Z,2.60
2022-08-22T10:31:26.335Z,2.30
2022-08-22T10:34:11.010Z,2.30
2022-08-22T10:36:56.284Z,2.30
2022-08-22T10:39:38.757Z,1.98
2022-08-22T10:42:31.197Z,2.22
2022-08-22T10:45:36.783Z,2.00
2022-08-22T10:48:33.700Z,1.77
2022-08-22T10:51:34.389Z,1.98
2022-08-22T10:54:40.709Z,1.95
2022-08-22T10:57:52.564Z,1.95
2022-08-22T11:00:46.237Z,1.65
2022-08-22T11:03:27.600Z,1.95
2022-08-22T11:06:02.949Z,1.95
2022-08-22T11:09:01.435Z,1.90
2022-08-22T11:11:47.548Z,2.10
2022-08-22T11:14:59.723Z,2.20
2022-08-22T11:18:21.820Z,2.35
2022-08-22T11:21:04.854Z,2.50
2022-08-22T11:23:50.259Z,2.30
2022-08-22T11:26:47.328Z,2.42
2022-08-22T11:29:51.200Z,2.40
2022-08-22T11:32:36.059Z,2.30
2022-08-22T11:35:18.018Z,2.47
2022-08-22T11:37:57.074Z,2.55
2022-08-22T11:40:38.810Z,2.50
2022-08-22T11:43:38.389Z,2.38
2022-08-22T11:46:24.276Z,2.60
2022-08-22T11:49:28.017Z,2.80
2022-08-22T11:52:54.211Z,2.80
2022-08-22T11:55:34.491Z,2.80
2022-08-22T11:58:29.198Z,2.78
2022-08-22T12:01:04.424Z,2.58
2022-08-22T12:04:05.517Z,2.65
2022-08-22T12:07:13.769Z,2.63
2022-08-22T12:09:55.192Z,2.53
2022-08-22T12:12:52.779Z,2.75
2022-08-22T12:15:28.991Z,2.45
2022-08-22T12:18:53.034Z,2.20
2022-08-22T12:22:12.052Z,2.47
2022-08-22T12:25:04.402Z,2.22
2022-08-22T12:28:11.464Z,2.15
2022-08-22T12:30:56.664Z,2.22
2022-08-22T12:34:07.492Z,2.10
2022-08-22T12:37:12.080Z,2.25
2022-08-22T12:40:39.190Z,2.33
2022-08-22T12:43:46.016Z,2.10
2022-08-22T12:46:35.552Z,1.80
2022-08-22T12:49:34.046Z,2.28
2022-08-22T12:52:25.148Z,1.95
2022-08-22T12:55:42.236Z,1.92
2022-08-22T12:58:24.132Z,2.17
2022-08-22T13:00:54.129Z,1.80
2022-08-22T13:03:32.621Z,1.85
2022-08-22T13:06:27.305Z,1.90
2022-08-22T13:08:56.783Z,1.90
2022-08-22T13:11:26.742Z,2.08
2022-08-22T13:14:01.554Z,2.03
2022-08-22T13:16:48.846Z,2.28
2022-08-22T13:19:24.101Z,2.30
2022-08-22T13:22:01.545Z,2.13
2022-08-22T13:24:51.971Z,2.45
2022-08-22T13:27:29.821Z,2.20
2022-08-22T13:30:03.188Z,2.42
2022-08-22T13:32:44.469Z,2.95
2022-08-22T13:35:24.619Z,2.67
2022-08-22T13:38:06.857Z,3.03
2022-08-22T13:40:37.708Z,2.83
2022-08-22T13:43:11.809Z,2.75
2022-08-22T13:45:51.506Z,3.00
2022-08-22T13:48:28.626Z,2.60
2022-08-22T13:51:11.019Z,2.40
2022-08-22T13:53:49.880Z,3.03
2022-08-22T13:56:43.510Z,2.72
2022-08-22T13:59:50.046Z,3.22
2022-08-22T14:02:38.195Z,2.83
2022-08-22T14:05:21.590Z,2.80
2022-08-22T14:08:12.799Z,2.70
2022-08-22T14:10:55.215Z,2.50
2022-08-22T14:13:45.380Z,2.47
2022-08-22T14:16:25.438Z,2.47
2022-08-22T14:18:59.144Z,2.53
2022-08-22T14:21:43.832Z,2.60
2022-08-22T14:24:25.762Z,2.90
2022-08-22T14:27:05.636Z,2.70
2022-08-22T14:29:45.327Z,2.67
2022-08-22T14:32:41.980Z,2.70
2022-08-22T14:35:25.518Z,2.78
2022-08-22T14:38:17.465Z,2.58
2022-08-22T14:40:54.179Z,2.80
2022-08-22T14:43:49.372Z,2.88
2022-08-22T14:46:27.026Z,2.53
2022-08-22T14:49:28.950Z,2.72
2022-08-22T14:52:10.230Z,2.72
2022-08-22T14:54:48.686Z,2.60
2022-08-22T14:57:20.823Z,2.75
2022-08-22T14:59:54.288Z,2.72
2022-08-22T15:02:30.729Z,2.90
2022-08-22T15:05:13.290Z,2.60
2022-08-22T15:07:42.201Z,2.70
2022-08-22T15:10:24.031Z,2.58
2022-08-22T15:12:57.272Z,2.67
2022-08-22T15:15:41.091Z,2.53
2022-08-22T15:18:37.343Z,2.25
2022-08-22T15:21:12.393Z,2.40
2022-08-22T15:23:46.728Z,2.50
2022-08-22T15:26:26.901Z,2.58
2022-08-22T15:29:09.630Z,2.53
2022-08-22T15:31:46.734Z,2.70
2022-08-22T15:34:25.670Z,2.45
2022-08-22T15:37:08.456Z,2.38
2022-08-22T15:40:08.475Z,2.65
2022-08-22T15:42:46.959Z,2.20
2022-08-22T15:45:39.060Z,2.40
2022-08-22T15:48:29.085Z,2.40
2022-08-22T15:51:02.647Z,2.05
2022-08-22T15:53:54.372Z,2.50
2022-08-22T15:56:30.506Z,2.33
2022-08-22T15:59:53.518Z,2.30
2022-08-22T16:02:35.084Z,2.33
2022-08-22T16:05:30.672Z,2.28
2022-08-22T16:08:07.643Z,2.67
2022-08-22T16:10:41.828Z,2.20
2022-08-22T16:13:41.955Z,1.83
2022-08-22T16:16:29.805Z,2.20
2022-08-22T16:19:20.402Z,2.30
2022-08-22T16:22:14.497Z,1.88
2022-08-22T16:25:10.702Z,2.30
2022-08-22T16:27:55.935Z,2.20
2022-08-22T16:30:39.314Z,2.22
2022-08-22T16:33:17.865Z,2.63
2022-08-22T16:36:39.043Z,2.60
2022-08-22T16:39:34.178Z,2.70
2022-08-22T16:42:36.225Z,2.40
2022-08-22T16:45:23.278Z,2.60
2022-08-22T16:47:58.593Z,2.83
2022-08-22T16:50:41.124Z,2.50
2022-08-22T16:53:59.594Z,2.10
2022-08-22T16:56:43.589Z,2.53
2022-08-22T16:59:42.261Z,2.47
2022-08-22T17:02:38.513Z,2.60
2022-08-22T17:05:30.797Z,2.45
2022-08-22T17:08:26.259Z,2.28
2022-08-22T17:11:12.454Z,2.63
2022-08-22T17:14:17.559Z,2.35
2022-08-22T17:17:12.438Z,2.40
2022-08-22T17:20:03.091Z,2.45
2022-08-22T17:22:58.269Z,2.38
2022-08-22T17:25:37.961Z,2.67
2022-08-22T17:28:36.853Z,2.20
2022-08-22T17:31:18.520Z,2.30
2022-08-22T17:34:07.322Z,2.55
2022-08-22T17:36:57.221Z,2.95
2022-08-22T17:40:04.199Z,2.40
2022-08-22T17:43:03.658Z,2.28
2022-08-22T17:45:50.710Z,2.50
2022-08-22T17:48:33.950Z,2.47
2022-08-22T17:51:28.328Z,2.13
2022-08-22T17:54:13.997Z,2.00
2022-08-22T17:57:05.547Z,2.10
2022-08-22T17:59:49.619Z,2.03
2022-08-22T18:02:27.477Z,2.00
2022-08-22T18:05:11.731Z,2.13
2022-08-22T18:07:54.392Z,2.67
2022-08-22T18:10:40.329Z,3.10
2022-08-22T18:13:20.429Z,2.50
2022-08-22T18:15:56.145Z,5.40
2022-08-22T18:18:34.573Z,3.42
2022-08-22T18:21:15.329Z,3.38
2022-08-22T18:23:51.773Z,2.90
2022-08-22T18:26:31.962Z,2.40
2022-08-22T18:29:12.710Z,2.40
2022-08-22T18:31:53.245Z,3.05
2022-08-22T18:34:32.974Z,3.20
2022-08-22T18:37:19.729Z,3.42
2022-08-22T18:40:00.014Z,3.63
2022-08-22T18:42:38.230Z,2.58
2022-08-22T18:45:08.115Z,2.53
2022-08-22T18:47:37.301Z,2.70
2022-08-22T18:50:32.178Z,2.63
2022-08-22T18:53:02.748Z,2.40
2022-08-22T18:55:57.239Z,2.70
2022-08-22T18:58:52.517Z,2.75
2022-08-22T19:01:52.623Z,2.92
2022-08-22T19:04:54.061Z,3.10
2022-08-22T19:07:48.144Z,3.33
2022-08-22T19:10:54.983Z,3.20
2022-08-22T19:13:48.548Z,2.80
2022-08-22T19:16:50.963Z,2.97
2022-08-22T19:19:55.936Z,3.15
2022-08-22T19:22:29.347Z,2.88
2022-08-22T19:25:21.178Z,3.22
2022-08-22T19:28:26.895Z,3.10
2022-08-22T19:31:23.831Z,2.97
2022-08-22T19:34:34.972Z,3.40
2022-08-22T19:37:33.937Z,3.03
2022-08-22T19:40:10.866Z,3.10
2022-08-22T19:42:44.122Z,3.45
2022-08-22T19:45:29.019Z,3.28
2022-08-22T19:48:11.778Z,3.00
2022-08-22T19:50:44.547Z,3.17
2022-08-22T19:53:39.487Z,4.30
2022-08-22T19:56:24.592Z,4.90
2022-08-22T19:59:13.873Z,5.55
2022-08-22T20:02:03.365Z,8.82
2022-08-22T20:05:03.988Z,6.93
2022-08-22T20:07:51.404Z,5.28
2022-08-22T20:10:34.622Z,8.25
2022-08-22T20:13:10.104Z,6.55
2022-08-22T20:16:08.811Z,6.13
2022-08-22T20:19:18.613Z,7.07
2022-08-22T20:22:00.006Z,5.03
2022-08-22T20:24:40.282Z,4.55
2022-08-22T20:27:16.429Z,4.63
2022-08-22T20:29:56.638Z,4.80
2022-08-22T20:32:27.173Z,4.47
2022-08-22T20:35:03.042Z,4.32
2022-08-22T20:38:05.862Z,5.43
2022-08-22T20:40:55.705Z,4.22
2022-08-22T20:43:35.486Z,5.20
2022-08-22T20:46:26.132Z,5.03
2022-08-22T20:48:57.471Z,5.07
2022-08-22T20:51:31.638Z,3.67
2022-08-22T20:54:10.159Z,4.23
2022-08-22T20:56:53.604Z,7.00
2022-08-22T20:59:39.918Z,7.23
2022-08-22T21:02:16.165Z,7.25
2022-08-22T21:04:53.300Z,6.53
2022-08-22T21:07:28.464Z,6.97
2022-08-22T21:10:22.617Z,5.72
2022-08-22T21:13:09.681Z,5.67
2022-08-22T21:15:43.575Z,5.90
2022-08-22T21:18:15.072Z,5.53
2022-08-22T21:20:43.782Z,5.60
2022-08-22T21:23:17.225Z,5.90
2022-08-22T21:25:57.060Z,5.60
2022-08-22T21:28:33.250Z,5.47
2022-08-22T21:31:12.428Z,4.90
2022-08-22T21:33:48.596Z,4.43
2022-08-22T21:36:21.562Z,5.03
2022-08-22T21:38:57.047Z,4.97
2022-08-22T21:41:29.344Z,5.37
2022-08-22T21:44:17.653Z,5.17
2022-08-22T21:46:46.809Z,5.30
2022-08-22T21:49:24.338Z,4.50
2022-08-22T21:51:54.120Z,4.20
2022-08-22T21:54:40.088Z,3.97
2022-08-22T21:57:36.928Z,4.50
2022-08-22T22:00:29.384Z,4.60
2022-08-22T22:03:02.857Z,4.30
2022-08-22T22:05:31.967Z,4.33
2022-08-22T22:08:00.972Z,4.50
2022-08-22T22:10:31.370Z,4.90
2022-08-22T22:13:00.318Z,4.67
2022-08-22T22:15:34.906Z,4.83
2022-08-22T22:18:03.776Z,5.13
2022-08-22T22:20:33.021Z,4.40
2022-08-22T22:23:01.787Z,5.00
2022-08-22T22:25:40.155Z,4.67
2022-08-22T22:28:16.192Z,4.37
2022-08-22T22:30:50.489Z,5.03
2022-08-22T22:33:19.822Z,4.67
2022-08-22T22:35:50.795Z,4.80
2022-08-22T22:38:23.929Z,4.83
2022-08-22T22:40:54.789Z,4.20
2022-08-22T22:43:23.661Z,4.83
2022-08-22T22:45:52.630Z,4.80
2022-08-22T22:48:24.448Z,5.23
2022-08-22T22:50:55.126Z,4.90
2022-08-22T22:53:33.609Z,5.30
2022-08-22T22:56:13.561Z,4.93
2022-08-22T22:58:42.847Z,5.33
2022-08-22T23:01:13.609Z,5.47
2022-08-22T23:03:43.089Z,5.30
2022-08-22T23:06:13.864Z,5.17
2022-08-22T23:08:42.683Z,5.60
2022-08-22T23:11:19.170Z,5.40
2022-08-22T23:13:49.261Z,5.47
2022-08-22T23:16:23.365Z,5.27
2022-08-22T23:18:52.165Z,5.67
2022-08-22T23:21:25.570Z,5.43
2022-08-22T23:23:57.729Z,5.50
2022-08-22T23:26:28.898Z,5.57
2022-08-22T23:28:58.752Z,6.27
2022-08-22T23:31:33.907Z,5.80
2022-08-22T23:34:07.189Z,5.93
2022-08-22T23:36:36.434Z,6.13
2022-08-22T23:39:06.580Z,6.00
2022-08-22T23:41:37.767Z,5.90
2022-08-22T23:44:13.618Z,5.80
2022-08-22T23:46:44.613Z,5.80
2022-08-22T23:49:14.926Z,6.10
2022-08-22T23:51:44.362Z,5.87
2022-08-22T23:54:14.282Z,5.70
2022-08-22T23:56:47.464Z,6.23
2022-08-22T23:59:20.273Z,6.30
